FAVS weather

Vastrap Airport
Upington, Northern Cape, South Africa

Public forecast

Using degrees Celsius for public forecast. Weather courtesy of forecast.io.

METAR (pilot weather report)

Closest report is Pierre Van Ryneveld Airport, 38.9 nm (72.0 km) SSW. Retrieved 2019/08/24 07:34 UTC (19 minutes ago):

FAUP 240734Z 05003KT CAVOK 22/M04 Q1027 NOSIG

TAF (pilot weather forecast)

Forecast is more than 12 hours old.

Closest forecast is Pierre Van Ryneveld Airport, 38.9 nm (72.0 km) SSW. Retrieved 2019/08/23 00:00 UTC (1 day ago):

TAF FAUP 232200Z 2400/2424 VRB03KT CAVOK TX31/2412Z TN11/2405Z